Grand Forks, ND (58201)

4:05 AM CDT on July 31, 2014 (GMT -0500)
Grand Forks International (KGFK) Elev 843 ft | 47.95 °N, 97.18 °W | Change Station

Current weather conditions updated 12 minutes ago

Partly Cloudy
Partly Cloudy
58 °F
Feels Like 58 °F
N
0
Wind Variable Wind from North

Today is forecast to be nearly the same temperature as yesterday.

Today
High -- | Low -- °F
--% Chance of Precip.
Yesterday
High -- | Low -- °F
Precip. -- in
6:03 AM 9:04 PM
Waxing Crescent, 17% visible
Pressure 30.02 in
Visibility 10.0 miles
Clouds Few 6000 ft
Dew Point 56 °F
Humidity 93%
Rainfall 0.00 in
Snow Depth Not available.
UV 0 out of 12
Pollen 7.60 out of 12
Air Quality Not available.
Flu Activity Not available.
METAR KGFK 310853Z AUTO 00000KT 10SM FEW060 14/13 A3002 RMK AO2 SLP165 T01440133 56004 TSNO

More Conditions Fewer Conditions

Pressure 30.02 in
Visibility 10.0 miles
Clouds Few 6000 ft
Dew Point 56 °F
Humidity 93%
Rainfall 0.00 in
Snow Depth Not available.
UV 0 out of 12
Pollen 7.60 out of 12
Air Quality Not available.
Flu Activity Not available.
METAR KGFK 310853Z AUTO 00000KT 10SM FEW060 14/13 A3002 RMK AO2 SLP165 T01440133 56004 TSNO

More Conditions Fewer Conditions

10-Day Weather Forecast

Almanac

Astronomy

Jul. 31, 2014 Rise Set
Actual Time 6:03 AM CDT 9:04 PM CDT
Civil Twilight 5:26 AM CDT 9:41 PM CDT
Nautical Twilight 4:39 AM CDT 10:28 PM CDT
Astronomical Twilight 3:41 AM CDT 11:25 PM CDT
Moon 10:56 AM CDT 10:52 PM CDT
Length of Visible Light 16h 14m
Length of Day
15h 01m
Tomorrow will be 2m 40s shorter.
Waxing Crescent, 17% of the Moon is Illuminated
Today
Waxing Crescent
Aug 3
First Quarter
Aug 10
Full
Aug 17
Last Quarter
Aug 25
New

Today's Extremes

State Highs State Lows

Community

WunderPhotos

Upload Photos

1,739,284 photos uploaded!

Nearby

Snow Depth

Station Depth Elevation
No new snow has been reported.

Earthquake Activity

City Distance Mag. Time & Date
No recent earthquake activity has been reported nearby.
Minimum magnitude displayed is 2.5.

Coastal Water Temperatures

Place Temperature
No Stations Reporting

Nearby Weather Stations

Station Location Temp. Dew Point Humidity Wind Precip. Elev Updated Type
Grand Forks, ND 64.4 °F 57 °F 79% East  at  2.1 mph 0.00 in / hr 830 ft 2:21 AM CDT Rapid Fire

Show More Stations Show Fewer Stations